Time;durP1;ratioP1;P1;durP2;ratioP2;P2;SDS_P1;SDS_P2;PMS_P1;PMS_P2;Temp;Humidity;BMP_temperature;BMP_pressure;BME280_temperature;BME280_humidity;BME280_pressure;Samples;Min_cycle;Max_cycle;Signal;HPM_P1;HPM_P2
2022/03/05 00:00:37;;;;;;;15.90;7.82;;;-0.80;99.90;;;;;;5128683;27;20517;-81
2022/03/05 00:03:04;;;;;;;14.10;7.10;;;-0.90;99.90;;;;;;5127485;27;20077;-81
2022/03/05 00:05:29;;;;;;;14.27;7.47;;;0.00;99.90;;;;;;5108788;27;20417;-82
2022/03/05 00:07:55;;;;;;;16.30;7.90;;;-1.10;99.90;;;;;;5127274;27;20039;-82
2022/03/05 00:10:21;;;;;;;15.27;7.38;;;-0.90;99.90;;;;;;5127192;27;20037;-82
2022/03/05 00:12:50;;;;;;;15.80;7.57;;;-0.90;99.90;;;;;;5108879;27;20145;-82
2022/03/05 00:15:17;;;;;;;13.95;6.97;;;-0.90;99.90;;;;;;5110088;27;20035;-82
2022/03/05 00:17:44;;;;;;;13.57;6.85;;;-1.00;99.90;;;;;;5128661;27;20038;-82
2022/03/05 00:20:10;;;;;;;14.68;7.47;;;-1.00;99.90;;;;;;5110644;27;20455;-82
2022/03/05 00:22:37;;;;;;;13.68;6.90;;;-1.00;99.90;;;;;;5110309;27;20549;-82
2022/03/05 00:25:03;;;;;;;16.83;6.78;;;-1.00;99.90;;;;;;5127916;27;20062;-82
2022/03/05 00:27:29;;;;;;;15.02;7.28;;;-1.00;99.90;;;;;;5110473;27;20077;-82
2022/03/05 00:29:55;;;;;;;15.10;7.25;;;-1.10;99.90;;;;;;5127561;27;20078;-83
2022/03/05 00:32:21;;;;;;;13.82;7.43;;;-1.10;99.90;;;;;;5130120;27;20269;-82
2022/03/05 00:34:47;;;;;;;15.57;7.57;;;-1.10;99.90;;;;;;5113339;27;20125;-82
2022/03/05 00:37:12;;;;;;;17.25;7.45;;;-1.20;99.90;;;;;;5115084;27;20042;-82
2022/03/05 00:39:39;;;;;;;16.38;8.45;;;-1.20;99.90;;;;;;5113806;27;20099;-82
2022/03/05 00:42:05;;;;;;;16.80;8.40;;;-1.20;99.90;;;;;;5129457;27;20043;-82
2022/03/05 00:44:31;;;;;;;15.82;8.27;;;-1.20;99.90;;;;;;5129841;27;20070;-82
2022/03/05 00:46:57;;;;;;;16.42;7.97;;;-1.30;99.90;;;;;;5115521;27;20081;-82
2022/03/05 00:49:22;;;;;;;17.00;8.05;;;-1.30;99.90;;;;;;5131553;27;20043;-82
2022/03/05 00:51:50;;;;;;;14.95;7.38;;;-1.30;99.90;;;;;;5130710;27;20038;-82
2022/03/05 00:54:16;;;;;;;16.42;7.95;;;-1.40;99.90;;;;;;5114224;27;20074;-82
2022/03/05 00:56:42;;;;;;;17.15;8.10;;;-1.30;99.90;;;;;;5114147;27;21393;-82
2022/03/05 00:59:08;;;;;;;14.52;7.47;;;-1.40;99.90;;;;;;5127334;27;20155;-82
2022/03/05 01:01:33;;;;;;;13.98;7.20;;;-1.30;99.90;;;;;;5131804;27;20053;-82
2022/03/05 01:03:59;;;;;;;17.80;7.28;;;-1.30;99.90;;;;;;5114681;27;20042;-82
2022/03/05 01:06:26;;;;;;;16.02;7.47;;;-1.40;99.90;;;;;;5109439;27;20163;-81
2022/03/05 01:08:52;;;;;;;16.92;8.32;;;-1.40;99.90;;;;;;5128657;27;20173;-82
2022/03/05 01:11:18;;;;;;;16.38;7.68;;;-1.30;99.90;;;;;;5114169;27;20121;-81
2022/03/05 01:13:44;;;;;;;15.73;6.88;;;-0.90;99.90;;;;;;5101998;27;20521;-82
2022/03/05 01:16:11;;;;;;;15.30;7.20;;;-1.30;99.90;;;;;;5092832;27;20061;-81
2022/03/05 01:18:37;;;;;;;16.15;8.02;;;-1.40;99.90;;;;;;5093873;27;20039;-82
2022/03/05 01:21:03;;;;;;;14.68;7.10;;;-1.30;99.90;;;;;;5095081;27;20035;-82
2022/03/05 01:23:28;;;;;;;16.55;8.27;;;-1.40;99.90;;;;;;5111280;27;20046;-82
2022/03/05 01:25:54;;;;;;;17.60;7.90;;;-1.40;99.90;;;;;;5109696;27;20066;-82
2022/03/05 01:28:20;;;;;;;15.15;7.95;;;-0.20;99.90;;;;;;5091294;27;20046;-82
2022/03/05 01:30:46;;;;;;;16.02;8.10;;;-1.40;99.90;;;;;;5093308;27;20046;-82
2022/03/05 01:33:17;;;;;;;16.15;7.57;;;-1.40;99.90;;;;;;5089679;27;20058;-83
2022/03/05 01:35:45;;;;;;;15.43;7.05;;;-1.50;99.90;;;;;;5083645;27;20039;-83
2022/03/05 01:38:12;;;;;;;15.82;7.70;;;-1.50;99.90;;;;;;5094119;27;20043;-83
2022/03/05 01:40:39;;;;;;;15.30;7.78;;;-1.50;99.90;;;;;;5109743;28;20047;-82
2022/03/05 01:43:05;;;;;;;15.00;7.55;;;-0.20;99.90;;;;;;5088280;27;20039;-82
2022/03/05 01:45:31;;;;;;;15.05;7.28;;;-1.50;99.90;;;;;;5093157;27;20031;-82
2022/03/05 01:47:57;;;;;;;18.38;7.97;;;-1.50;99.90;;;;;;5094277;27;20050;-82
2022/03/05 01:50:23;;;;;;;15.65;7.20;;;-1.60;99.90;;;;;;5101590;27;20054;-83
2022/03/05 01:52:50;;;;;;;14.60;7.70;;;-1.60;99.90;;;;;;5086723;27;20403;-82
2022/03/05 01:55:15;;;;;;;17.90;7.43;;;-1.60;99.90;;;;;;5093883;27;20054;-82
2022/03/05 01:57:41;;;;;;;18.25;8.38;;;-1.60;99.90;;;;;;5110953;27;20043;-82
2022/03/05 02:00:09;;;;;;;16.20;7.88;;;-1.60;99.90;;;;;;5091126;27;20046;-82
2022/03/05 02:02:34;;;;;;;18.73;8.75;;;-1.60;99.90;;;;;;5090914;27;20061;-83
2022/03/05 02:05:00;;;;;;;15.95;7.75;;;-1.60;99.90;;;;;;5092927;27;20822;-82
2022/03/05 02:07:26;;;;;;;17.15;8.80;;;-1.60;99.90;;;;;;5093290;27;20121;-83
2022/03/05 02:09:52;;;;;;;18.88;7.65;;;-1.60;99.90;;;;;;5087413;27;20492;-83
2022/03/05 02:12:18;;;;;;;17.05;8.25;;;-1.70;99.90;;;;;;5103134;27;20039;-82
2022/03/05 02:14:44;;;;;;;21.67;8.35;;;-1.60;99.90;;;;;;5089344;27;20080;-83
2022/03/05 02:17:10;;;;;;;17.38;7.70;;;-1.60;99.90;;;;;;5088256;27;20194;-83
2022/03/05 02:19:36;;;;;;;16.38;8.32;;;-1.60;99.90;;;;;;5097872;27;20130;-83
2022/03/05 02:22:03;;;;;;;17.83;8.43;;;-1.60;99.90;;;;;;5098149;27;20043;-83
2022/03/05 02:24:32;;;;;;;16.98;8.15;;;-1.60;99.90;;;;;;5101575;27;20106;-84
2022/03/05 02:26:59;;;;;;;16.67;8.25;;;-0.90;99.90;;;;;;5104521;27;20128;-83
2022/03/05 02:29:25;;;;;;;19.58;8.20;;;-1.70;99.90;;;;;;5099014;27;20083;-83
2022/03/05 02:31:53;;;;;;;17.10;7.97;;;-1.70;99.90;;;;;;5092926;27;20400;-83
2022/03/05 02:34:22;;;;;;;16.40;7.93;;;-1.70;99.90;;;;;;5082252;27;20400;-84
2022/03/05 02:36:48;;;;;;;17.88;8.90;;;-1.60;99.90;;;;;;5084845;27;20043;-84
2022/03/05 02:39:14;;;;;;;16.75;7.85;;;-1.70;99.90;;;;;;5093094;27;20043;-84
2022/03/05 02:41:40;;;;;;;15.50;8.10;;;-1.60;99.90;;;;;;5082811;27;20649;-83
2022/03/05 02:44:05;;;;;;;17.20;8.15;;;-1.60;99.90;;;;;;5077240;27;20136;-84
2022/03/05 02:46:34;;;;;;;15.73;8.10;;;-0.50;99.90;;;;;;5093562;27;20031;-83
2022/03/05 02:49:00;;;;;;;17.58;8.82;;;-1.70;99.90;;;;;;5094348;27;20064;-83
2022/03/05 02:51:26;;;;;;;17.27;7.43;;;-1.70;99.90;;;;;;5075126;27;20039;-84
2022/03/05 02:53:52;;;;;;;15.68;7.55;;;-1.70;99.90;;;;;;5094926;27;20070;-84
2022/03/05 02:56:17;;;;;;;15.82;7.55;;;-1.70;99.90;;;;;;5072372;27;20067;-84
2022/03/05 02:58:43;;;;;;;17.95;8.73;;;-1.40;99.90;;;;;;5071083;28;20042;-83
2022/03/05 03:01:09;;;;;;;15.10;8.07;;;-1.70;99.90;;;;;;5077414;27;20551;-83
2022/03/05 03:03:36;;;;;;;16.85;7.65;;;-1.70;99.90;;;;;;5095888;27;20039;-83
2022/03/05 03:06:02;;;;;;;20.10;7.75;;;-1.70;99.90;;;;;;5078245;27;20035;-83
2022/03/05 03:08:27;;;;;;;12.68;6.57;;;-1.80;99.90;;;;;;5093973;27;20055;-83
2022/03/05 03:10:53;;;;;;;15.27;7.68;;;-0.80;99.90;;;;;;5087010;27;20031;-83
2022/03/05 03:13:18;;;;;;;15.88;8.00;;;-1.80;99.90;;;;;;5075535;27;20069;-83
2022/03/05 03:15:44;;;;;;;16.98;7.65;;;-1.80;99.90;;;;;;5075492;28;20039;-82
2022/03/05 03:18:10;;;;;;;17.40;8.30;;;-1.90;99.90;;;;;;5082319;28;20430;-83
2022/03/05 03:20:35;;;;;;;16.63;8.18;;;-1.90;99.90;;;;;;5088116;27;20039;-83
2022/03/05 03:23:01;;;;;;;14.68;7.30;;;-1.90;99.90;;;;;;5066033;27;20043;-83
2022/03/05 03:25:27;;;;;;;16.42;8.10;;;-1.90;99.90;;;;;;5083283;27;20034;-83
2022/03/05 03:27:53;;;;;;;15.43;6.85;;;-1.90;99.90;;;;;;5086153;27;20043;-83
2022/03/05 03:30:19;;;;;;;15.40;7.40;;;-2.00;99.90;;;;;;5079530;27;20039;-83
2022/03/05 03:32:46;;;;;;;16.25;7.35;;;-2.00;99.90;;;;;;5081338;27;20043;-83
2022/03/05 03:35:13;;;;;;;14.90;8.18;;;-2.00;99.90;;;;;;5087765;28;20396;-83
2022/03/05 03:37:40;;;;;;;14.07;7.15;;;-2.10;99.90;;;;;;5080635;27;20035;-83
2022/03/05 03:40:10;;;;;;;15.15;8.02;;;-2.00;99.90;;;;;;5102980;27;20212;-83
2022/03/05 03:42:37;;;;;;;16.80;7.68;;;-2.00;99.90;;;;;;5085786;27;20042;-82
2022/03/05 03:45:05;;;;;;;15.00;6.93;;;-2.00;99.90;;;;;;5105700;28;20130;-83
2022/03/05 03:47:31;;;;;;;14.50;6.85;;;-2.00;99.90;;;;;;5083394;27;20035;-82
2022/03/05 03:49:56;;;;;;;16.38;7.43;;;-2.00;99.90;;;;;;5090681;28;20097;-82
2022/03/05 03:52:22;;;;;;;15.35;7.20;;;-2.10;99.90;;;;;;5078256;28;20047;-82
2022/03/05 03:54:48;;;;;;;14.43;7.00;;;-2.10;99.90;;;;;;5082689;28;20043;-82
2022/03/05 03:57:14;;;;;;;16.05;7.18;;;-2.10;99.90;;;;;;5078563;28;20400;-82
2022/03/05 03:59:40;;;;;;;14.93;7.28;;;-2.00;99.90;;;;;;5092470;28;20047;-83
2022/03/05 04:02:06;;;;;;;14.27;6.88;;;-2.10;99.90;;;;;;5090509;28;20046;-82
2022/03/05 04:04:32;;;;;;;16.90;7.07;;;-2.10;99.90;;;;;;5101353;28;20071;-82
2022/03/05 04:09:42;;;;;;;15.70;6.93;;;-2.10;99.90;;;;;;5103797;28;20642;-82
2022/03/05 04:12:08;;;;;;;14.40;6.80;;;-2.10;99.90;;;;;;5102770;28;20047;-82
2022/03/05 04:14:35;;;;;;;16.90;7.07;;;-2.10;99.90;;;;;;5096910;28;20077;-82
2022/03/05 04:17:00;;;;;;;13.23;6.22;;;-2.10;99.90;;;;;;5066526;28;20031;-82
2022/03/05 04:19:26;;;;;;;14.23;6.63;;;-1.30;99.90;;;;;;5096809;28;20043;-82
2022/03/05 04:21:52;;;;;;;15.63;6.88;;;-1.70;99.90;;;;;;5083356;28;20716;-83
2022/03/05 04:24:18;;;;;;;15.65;6.47;;;-2.20;99.90;;;;;;5100636;28;20044;-82
2022/03/05 04:26:43;;;;;;;14.32;6.55;;;-2.20;99.90;;;;;;5103077;28;20057;-82
2022/03/05 04:29:09;;;;;;;14.98;5.90;;;-2.20;99.90;;;;;;5087978;28;20067;-82
2022/03/05 04:31:35;;;;;;;13.13;6.53;;;-2.20;99.90;;;;;;5079516;28;20039;-82
2022/03/05 04:34:00;;;;;;;13.75;6.93;;;-2.20;99.90;;;;;;5081295;28;20763;-82
2022/03/05 04:36:26;;;;;;;15.68;6.82;;;-2.20;99.90;;;;;;5088751;28;20114;-82
2022/03/05 04:38:52;;;;;;;15.00;6.72;;;-2.20;99.90;;;;;;5088611;28;20127;-82
2022/03/05 04:41:18;;;;;;;14.50;6.93;;;-2.20;99.90;;;;;;5081441;28;20154;-81
2022/03/05 04:43:43;;;;;;;16.02;7.10;;;-2.20;99.90;;;;;;5104044;28;20442;-82
2022/03/05 04:46:09;;;;;;;16.83;6.65;;;-2.30;99.90;;;;;;5086759;28;20074;-82
2022/03/05 04:48:35;;;;;;;14.30;6.97;;;-2.30;99.90;;;;;;5086224;28;20107;-81
2022/03/05 04:51:01;;;;;;;15.40;7.32;;;-2.20;99.90;;;;;;5083825;28;20054;-82
2022/03/05 04:53:26;;;;;;;15.80;7.80;;;-2.30;99.90;;;;;;5101927;28;20088;-82
2022/03/05 04:55:52;;;;;;;18.52;7.13;;;-0.80;99.90;;;;;;5087496;28;20606;-82
2022/03/05 04:58:18;;;;;;;15.25;7.35;;;-2.50;99.90;;;;;;5073330;28;20559;-82
2022/03/05 05:00:44;;;;;;;16.77;7.53;;;-2.20;99.90;;;;;;5092245;28;20035;-82
2022/03/05 05:03:10;;;;;;;15.13;7.13;;;-2.30;99.90;;;;;;5111627;28;20043;-82
2022/03/05 05:05:35;;;;;;;14.30;7.20;;;-2.20;99.90;;;;;;5087960;28;20043;-82
2022/03/05 05:08:01;;;;;;;16.13;7.50;;;-2.30;99.90;;;;;;5085451;28;20044;-82
2022/03/05 05:10:27;;;;;;;12.65;6.55;;;-2.30;99.90;;;;;;5105261;28;20066;-83
2022/03/05 05:12:52;;;;;;;14.43;7.40;;;-2.30;99.90;;;;;;5104076;28;20058;-83
2022/03/05 05:15:18;;;;;;;16.48;7.53;;;-2.30;99.90;;;;;;5107056;27;20395;-82
2022/03/05 05:17:44;;;;;;;14.27;6.88;;;-2.30;99.90;;;;;;5117898;27;20046;-83
2022/03/05 05:20:11;;;;;;;15.38;7.20;;;-2.30;99.90;;;;;;5117050;27;20050;-83
2022/03/05 05:22:37;;;;;;;15.20;6.75;;;-2.30;99.90;;;;;;5130451;27;20581;-83
2022/03/05 05:25:04;;;;;;;14.73;7.43;;;-1.30;99.90;;;;;;5127632;27;20043;-83
2022/03/05 05:27:36;;;;;;;14.57;7.13;;;-2.30;99.90;;;;;;5131782;27;20034;-83
2022/03/05 05:30:02;;;;;;;14.10;7.43;;;-2.40;99.90;;;;;;5127354;27;20049;-83
2022/03/05 05:32:28;;;;;;;12.50;6.63;;;-2.40;99.90;;;;;;5134280;27;20046;-83
2022/03/05 05:34:54;;;;;;;13.10;7.22;;;-2.40;99.90;;;;;;5114146;27;20065;-83
2022/03/05 05:37:22;;;;;;;14.07;6.43;;;-2.30;99.90;;;;;;5127795;27;20047;-83
2022/03/05 05:39:48;;;;;;;14.90;7.13;;;-2.30;99.90;;;;;;5109750;27;20038;-83
2022/03/05 05:42:14;;;;;;;13.23;6.72;;;-2.30;99.90;;;;;;5101220;27;20094;-83
2022/03/05 05:44:40;;;;;;;15.48;6.85;;;-2.30;99.90;;;;;;5112492;27;20046;-83
2022/03/05 05:47:06;;;;;;;14.23;6.35;;;-2.30;99.90;;;;;;5114032;27;20043;-84
2022/03/05 05:49:33;;;;;;;15.50;7.53;;;-2.20;99.90;;;;;;5095973;27;20027;-83
2022/03/05 05:51:59;;;;;;;16.98;6.70;;;-0.90;99.90;;;;;;5123324;27;20180;-83
2022/03/05 05:54:24;;;;;;;14.55;7.45;;;-2.20;99.90;;;;;;5114072;27;20550;-83
2022/03/05 05:56:50;;;;;;;15.38;7.22;;;-2.10;99.90;;;;;;5108315;27;20505;-84
2022/03/05 05:59:16;;;;;;;14.75;6.32;;;-2.10;99.90;;;;;;5107676;27;20557;-83
2022/03/05 06:01:42;;;;;;;13.32;6.57;;;-2.10;99.90;;;;;;5121797;27;20121;-84
2022/03/05 06:04:08;;;;;;;17.13;6.93;;;-2.10;99.90;;;;;;5112973;27;20547;-84
2022/03/05 06:06:33;;;;;;;14.32;6.82;;;-2.10;99.90;;;;;;5127357;27;20081;-84
2022/03/05 06:08:59;;;;;;;13.55;6.30;;;-2.10;99.90;;;;;;5124148;27;20043;-84
2022/03/05 06:11:25;;;;;;;15.23;7.07;;;-1.10;99.90;;;;;;5102507;27;20689;-87
2022/03/05 06:13:51;;;;;;;14.45;6.95;;;-2.10;99.90;;;;;;5110507;27;20043;-83
2022/03/05 06:16:16;;;;;;;13.35;6.50;;;-1.70;99.90;;;;;;5114754;27;20035;-83
2022/03/05 06:18:43;;;;;;;15.00;6.57;;;-2.10;99.90;;;;;;5100084;27;20510;-82
2022/03/05 06:21:09;;;;;;;13.85;6.78;;;-2.10;99.90;;;;;;5098285;27;20400;-83
2022/03/05 06:23:35;;;;;;;11.90;6.22;;;-2.10;99.90;;;;;;5111285;27;20059;-83
2022/03/05 06:26:01;;;;;;;16.08;7.07;;;-2.10;99.90;;;;;;5120429;27;20035;-83
2022/03/05 06:28:28;;;;;;;15.95;6.85;;;-2.10;99.90;;;;;;5125883;27;20165;-83
2022/03/05 06:30:54;;;;;;;16.42;7.38;;;-2.10;99.90;;;;;;5107056;27;20235;-83
2022/03/05 06:33:20;;;;;;;15.35;7.68;;;-2.10;99.90;;;;;;5111191;27;20047;-83
2022/03/05 06:35:46;;;;;;;15.15;7.22;;;-2.10;99.90;;;;;;5122720;27;20046;-83
2022/03/05 06:38:12;;;;;;;14.48;7.22;;;-2.10;99.90;;;;;;5121654;27;20054;-83
2022/03/05 06:40:38;;;;;;;16.20;6.75;;;-2.00;99.90;;;;;;5101693;27;20054;-83
2022/03/05 06:43:04;;;;;;;13.40;6.65;;;-2.00;99.90;;;;;;5110572;27;20047;-83
2022/03/05 06:45:30;;;;;;;15.95;7.13;;;-0.60;99.90;;;;;;5105276;27;20035;-84
2022/03/05 06:47:56;;;;;;;14.55;7.07;;;-1.90;99.90;;;;;;5100774;27;20030;-83
2022/03/05 06:50:21;;;;;;;20.20;7.07;;;-1.90;99.90;;;;;;5104325;27;20098;-84
2022/03/05 06:52:47;;;;;;;15.85;6.75;;;-1.50;99.90;;;;;;5108025;27;20031;-84
2022/03/05 06:55:15;;;;;;;16.67;7.13;;;-1.80;99.90;;;;;;5102620;27;20055;-84
2022/03/05 06:57:44;;;;;;;13.15;6.97;;;-0.80;99.90;;;;;;5110790;27;20514;-84
2022/03/05 07:00:13;;;;;;;12.75;6.28;;;-1.60;99.90;;;;;;5116041;27;20124;-84
2022/03/05 07:02:39;;;;;;;15.52;7.30;;;-1.60;99.90;;;;;;5112790;27;20104;-84
2022/03/05 07:05:05;;;;;;;13.38;6.65;;;-1.60;99.90;;;;;;5119571;27;20042;-83
2022/03/05 07:07:31;;;;;;;15.52;7.90;;;-1.50;99.90;;;;;;5117333;27;20041;-84
2022/03/05 07:09:56;;;;;;;14.70;7.03;;;-1.40;99.90;;;;;;5109668;27;20412;-84
2022/03/05 07:12:22;;;;;;;14.50;7.70;;;-1.00;99.90;;;;;;5112992;27;20038;-84
2022/03/05 07:14:51;;;;;;;14.55;6.72;;;0.90;99.90;;;;;;5105185;27;20046;-84
2022/03/05 07:17:16;;;;;;;14.05;6.32;;;0.70;99.90;;;;;;5111177;27;20724;-84
2022/03/05 07:19:42;;;;;;;14.25;6.57;;;1.70;99.90;;;;;;5128631;27;20047;-84
2022/03/05 07:22:08;;;;;;;15.00;7.07;;;2.40;99.90;;;;;;5111736;27;20049;-84
2022/03/05 07:24:34;;;;;;;12.48;5.93;;;3.00;99.90;;;;;;5125904;27;20066;-83
2022/03/05 07:27:00;;;;;;;12.70;5.97;;;3.50;99.90;;;;;;5110324;27;20118;-83
2022/03/05 07:29:25;;;;;;;12.70;5.47;;;3.90;99.90;;;;;;5110758;27;20456;-83
2022/03/05 07:31:51;;;;;;;11.43;5.68;;;5.60;99.90;;;;;;5122401;27;20398;-83
2022/03/05 07:34:17;;;;;;;11.95;5.97;;;5.40;99.90;;;;;;5122512;27;20038;-83
2022/03/05 07:36:43;;;;;;;13.00;5.63;;;5.90;99.90;;;;;;5108110;27;20705;-84
2022/03/05 07:39:09;;;;;;;12.20;5.68;;;6.50;99.90;;;;;;5104021;27;20030;-83
2022/03/05 07:41:36;;;;;;;10.25;5.32;;;7.20;99.90;;;;;;5111944;27;20111;-83
2022/03/05 07:44:06;;;;;;;12.52;6.07;;;7.50;99.90;;;;;;5109402;27;20422;-83
2022/03/05 07:46:35;;;;;;;12.18;5.90;;;7.20;99.90;;;;;;5124112;27;20522;-83
2022/03/05 07:49:01;;;;;;;13.57;5.95;;;6.80;99.90;;;;;;5106988;27;20107;-83
2022/03/05 07:51:27;;;;;;;15.95;6.50;;;6.60;99.90;;;;;;5110036;27;20776;-83
2022/03/05 07:53:53;;;;;;;12.75;5.97;;;7.90;99.90;;;;;;5126407;27;20042;-83
2022/03/05 07:56:22;;;;;;;13.27;6.00;;;7.20;99.90;;;;;;5126186;27;20046;-84
2022/03/05 07:58:48;;;;;;;12.30;6.28;;;7.60;99.90;;;;;;5110872;27;20143;-84
2022/03/05 08:01:14;;;;;;;12.30;6.30;;;7.80;99.90;;;;;;5111747;27;20534;-83
2022/03/05 08:03:39;;;;;;;11.75;6.00;;;8.30;99.90;;;;;;5112563;27;20369;-83
2022/03/05 08:06:05;;;;;;;14.38;7.20;;;8.90;99.90;;;;;;5108650;27;20039;-84
2022/03/05 08:08:31;;;;;;;11.85;6.47;;;8.20;99.90;;;;;;5109107;27;20038;-83
2022/03/05 08:10:57;;;;;;;14.23;7.10;;;8.20;99.90;;;;;;5109556;27;20047;-83
2022/03/05 08:13:23;;;;;;;14.20;7.18;;;8.30;99.90;;;;;;5098167;27;20492;-83
2022/03/05 08:15:49;;;;;;;16.88;7.50;;;7.90;99.00;;;;;;5114012;27;20104;-84
2022/03/05 08:18:15;;;;;;;15.63;6.90;;;7.20;99.90;;;;;;5097887;27;21720;-83
2022/03/05 08:20:41;;;;;;;14.40;7.60;;;6.20;99.90;;;;;;5115920;27;20046;-83
2022/03/05 08:23:06;;;;;;;13.20;7.47;;;5.40;99.90;;;;;;5116394;27;20066;-84
2022/03/05 08:25:32;;;;;;;12.93;7.32;;;4.90;99.90;;;;;;5103671;27;20034;-82
2022/03/05 08:27:58;;;;;;;15.88;8.27;;;4.40;99.90;;;;;;5101810;27;20039;-83
2022/03/05 08:30:24;;;;;;;16.25;8.13;;;4.10;99.90;;;;;;5092465;27;20042;-82
2022/03/05 08:32:50;;;;;;;16.02;8.63;;;3.80;99.90;;;;;;5088190;27;20042;-81
2022/03/05 08:35:16;;;;;;;18.42;8.77;;;3.70;99.90;;;;;;5103281;27;20038;-83
2022/03/05 08:37:43;;;;;;;16.85;8.10;;;3.70;99.90;;;;;;5106789;27;20043;-82
2022/03/05 08:40:11;;;;;;;15.45;8.23;;;3.60;99.90;;;;;;5115264;27;20062;-82
2022/03/05 08:42:37;;;;;;;17.92;8.55;;;3.60;99.90;;;;;;5095450;27;20047;-82
2022/03/05 08:45:04;;;;;;;15.82;8.88;;;3.60;99.90;;;;;;5110470;27;20058;-82
2022/03/05 08:47:31;;;;;;;19.73;9.40;;;3.70;99.90;;;;;;5096228;27;20128;-82
2022/03/05 08:49:56;;;;;;;17.50;8.82;;;3.60;99.90;;;;;;5125697;27;20098;-81
2022/03/05 08:52:22;;;;;;;17.85;8.82;;;3.50;99.90;;;;;;5122876;27;20039;-81
2022/03/05 08:54:48;;;;;;;18.05;8.85;;;3.60;99.90;;;;;;5126380;27;20102;-82
2022/03/05 08:57:14;;;;;;;18.17;8.93;;;3.60;99.90;;;;;;5127953;27;20031;-81
2022/03/05 08:59:39;;;;;;;18.70;10.25;;;3.70;99.90;;;;;;5131672;27;20322;-81
2022/03/05 09:02:06;;;;;;;16.88;8.52;;;3.70;99.90;;;;;;5108823;27;20134;-82
2022/03/05 09:04:32;;;;;;;18.60;9.48;;;3.70;99.90;;;;;;5118949;27;20099;-81
2022/03/05 09:06:58;;;;;;;17.70;9.93;;;3.70;99.90;;;;;;5097396;27;20051;-82
2022/03/05 09:09:23;;;;;;;17.65;9.23;;;3.70;99.90;;;;;;5120635;27;20085;-81
2022/03/05 09:11:49;;;;;;;19.88;10.27;;;3.70;99.90;;;;;;5105167;27;20414;-81
2022/03/05 09:14:15;;;;;;;19.27;10.02;;;3.80;99.90;;;;;;5112297;27;20082;-82
2022/03/05 09:16:41;;;;;;;20.08;9.35;;;3.90;99.90;;;;;;5120639;27;20069;-82
2022/03/05 09:19:07;;;;;;;21.38;10.15;;;4.00;99.90;;;;;;5113023;27;20530;-81
2022/03/05 09:21:35;;;;;;;19.60;9.90;;;4.00;99.90;;;;;;5106562;27;20091;-80
2022/03/05 09:24:02;;;;;;;19.08;10.60;;;4.10;99.90;;;;;;5113028;27;20598;-80
2022/03/05 09:26:27;;;;;;;21.83;10.05;;;4.00;99.90;;;;;;5109577;27;20027;-81
2022/03/05 09:28:53;;;;;;;17.80;9.43;;;4.00;99.90;;;;;;5127317;27;20099;-82
2022/03/05 09:31:19;;;;;;;23.02;9.82;;;4.00;99.90;;;;;;5126359;27;20035;-81
2022/03/05 09:33:45;;;;;;;19.05;10.15;;;4.10;99.90;;;;;;5127157;27;20125;-82
2022/03/05 09:36:11;;;;;;;20.00;10.77;;;4.20;99.90;;;;;;5111177;27;20436;-82
2022/03/05 09:38:36;;;;;;;20.15;10.07;;;4.20;99.90;;;;;;5107861;27;20042;-82
2022/03/05 09:41:07;;;;;;;22.17;10.68;;;4.20;99.90;;;;;;5120995;27;20049;-81
2022/03/05 09:43:34;;;;;;;20.60;10.20;;;4.30;99.90;;;;;;5124515;27;20075;-81
2022/03/05 09:46:00;;;;;;;20.52;10.82;;;4.20;99.90;;;;;;5128405;27;20511;-81
2022/03/05 09:48:30;;;;;;;18.30;9.82;;;5.00;99.90;;;;;;5111786;27;20066;-81
2022/03/05 09:50:57;;;;;;;20.35;9.88;;;4.30;99.90;;;;;;5121812;27;20544;-81
2022/03/05 09:53:30;;;;;;;22.38;10.52;;;4.30;99.90;;;;;;5096307;27;20448;-82
2022/03/05 09:55:57;;;;;;;20.20;10.25;;;4.30;99.90;;;;;;5095848;27;20047;-82
2022/03/05 09:58:23;;;;;;;21.50;10.75;;;4.40;99.90;;;;;;5085305;27;20042;-81
2022/03/05 10:00:50;;;;;;;19.98;10.05;;;4.50;99.90;;;;;;5116397;27;20054;-83
2022/03/05 10:03:16;;;;;;;22.45;10.90;;;4.40;99.90;;;;;;5099070;27;20601;-83
2022/03/05 10:05:42;;;;;;;21.05;10.88;;;4.40;99.90;;;;;;5119362;27;20062;-82
2022/03/05 10:08:11;;;;;;;21.08;10.98;;;4.30;99.90;;;;;;5120428;27;20133;-82
2022/03/05 10:10:47;;;;;;;23.48;11.73;;;4.30;99.90;;;;;;5119544;27;20510;-80
2022/03/05 10:13:20;;;;;;;23.85;12.02;;;4.30;99.90;;;;;;5090544;27;20511;-81
2022/03/05 10:15:46;;;;;;;22.52;10.75;;;4.40;99.90;;;;;;5090094;27;20454;-81
2022/03/05 10:18:12;;;;;;;22.48;11.10;;;4.40;99.90;;;;;;5122470;27;20623;-80
2022/03/05 10:20:52;;;;;;;22.67;10.70;;;4.40;99.90;;;;;;5092282;27;20051;-81
2022/03/05 10:23:19;;;;;;;21.38;10.95;;;4.70;99.90;;;;;;5099298;27;20255;-81
2022/03/05 10:25:51;;;;;;;25.45;11.52;;;4.50;99.90;;;;;;5105585;27;20061;-81
2022/03/05 10:28:26;;;;;;;;;;;4.30;99.90;;;;;;5092991;27;20176;-81
2022/03/05 10:30:54;;;;;;;19.75;10.73;;;4.60;99.90;;;;;;5090462;27;19944;-79
2022/03/05 10:33:33;;;;;;;20.67;10.85;;;4.60;99.90;;;;;;5099710;27;20066;-81
2022/03/05 10:36:10;;;;;;;23.13;11.93;;;4.70;99.90;;;;;;5103046;27;20047;-83
2022/03/05 10:38:55;;;;;;;23.65;12.15;;;4.70;99.90;;;;;;5088143;27;21945;-81
2022/03/05 10:41:22;;;;;;;23.48;11.75;;;4.70;99.90;;;;;;5089069;27;20058;-82
2022/03/05 10:44:06;;;;;;;22.73;11.38;;;4.70;99.90;;;;;;5087886;27;20050;-82
2022/03/05 10:46:46;;;;;;;20.67;10.73;;;5.40;99.90;;;;;;5087405;27;20043;-82
2022/03/05 10:49:22;;;;;;;24.25;11.95;;;4.90;99.90;;;;;;5088491;27;20107;-81
2022/03/05 10:52:07;;;;;;;24.05;12.32;;;4.80;99.90;;;;;;5090010;27;20042;-82
2022/03/05 10:54:39;;;;;;;22.63;11.45;;;4.80;99.90;;;;;;5095601;27;20046;-81
2022/03/05 10:57:18;;;;;;;22.95;11.15;;;4.80;99.90;;;;;;5111470;27;20655;-84
2022/03/05 10:59:53;;;;;;;20.20;10.85;;;4.80;99.90;;;;;;5111903;27;20039;-81
2022/03/05 11:02:21;;;;;;;24.42;12.65;;;4.80;99.90;;;;;;5110112;27;20047;-80
2022/03/05 11:04:47;;;;;;;23.88;13.07;;;4.90;99.90;;;;;;5075526;27;20123;-81
2022/03/05 11:07:19;;;;;;;27.98;13.65;;;4.90;99.90;;;;;;5110995;27;20057;-81
2022/03/05 11:09:47;;;;;;;25.33;12.38;;;4.90;99.90;;;;;;5109760;27;20171;-80
2022/03/05 11:12:16;;;;;;;25.15;12.18;;;4.90;99.90;;;;;;5092679;27;20043;-81
2022/03/05 11:14:45;;;;;;;22.85;11.75;;;5.00;99.90;;;;;;5095144;27;20055;-80
2022/03/05 11:17:11;;;;;;;23.80;12.00;;;5.10;99.90;;;;;;5094533;27;20171;-81
2022/03/05 11:19:38;;;;;;;22.52;11.90;;;5.20;99.90;;;;;;5104766;27;20046;-81
2022/03/05 11:22:04;;;;;;;23.45;13.70;;;5.20;99.90;;;;;;5109684;27;20039;-80
2022/03/05 11:24:31;;;;;;;24.33;11.80;;;5.30;99.90;;;;;;5089415;27;20043;-82
2022/03/05 11:26:57;;;;;;;23.73;11.52;;;5.30;99.90;;;;;;5108020;27;20081;-81
2022/03/05 11:29:26;;;;;;;24.73;13.15;;;5.40;99.90;;;;;;5094122;27;20163;-82
2022/03/05 11:31:52;;;;;;;25.50;13.25;;;5.50;99.90;;;;;;5094041;27;20065;-81
2022/03/05 11:34:23;;;;;;;26.75;13.02;;;5.60;99.90;;;;;;5090462;27;20046;-80
2022/03/05 11:36:51;;;;;;;22.52;11.52;;;5.60;99.90;;;;;;5096840;27;20042;-81
2022/03/05 11:39:23;;;;;;;24.83;13.02;;;5.60;99.90;;;;;;5078035;27;20498;-82
2022/03/05 11:41:48;;;;;;;25.08;12.77;;;5.70;99.90;;;;;;5096306;27;20068;-82
2022/03/05 11:44:16;;;;;;;26.58;13.23;;;5.80;99.90;;;;;;5112187;27;20043;-83
2022/03/05 11:46:42;;;;;;;26.58;13.00;;;5.90;99.90;;;;;;5094824;27;20066;-81
2022/03/05 11:49:13;;;;;;;22.38;11.45;;;5.90;99.90;;;;;;5115708;27;20511;-82
2022/03/05 11:51:50;;;;;;;26.52;13.10;;;6.20;99.90;;;;;;5114034;27;20082;-81
2022/03/05 11:54:19;;;;;;;24.38;12.35;;;6.10;99.90;;;;;;5095214;27;20046;-81
2022/03/05 11:57:02;;;;;;;25.08;13.00;;;6.20;99.90;;;;;;5112985;27;20109;-81
2022/03/05 11:59:32;;;;;;;27.13;13.75;;;6.30;99.90;;;;;;5109882;27;20046;-80
2022/03/05 12:01:58;;;;;;;22.75;12.07;;;6.40;99.90;;;;;;5096392;27;20038;-81
2022/03/05 12:04:28;;;;;;;25.30;12.18;;;6.40;99.90;;;;;;5113558;27;20031;-82
2022/03/05 12:07:10;;;;;;;22.15;11.35;;;6.40;99.90;;;;;;5095380;27;20541;-82
2022/03/05 12:09:39;;;;;;;24.10;12.80;;;6.50;99.90;;;;;;5119358;27;20046;-81
2022/03/05 12:12:08;;;;;;;22.30;12.45;;;6.50;99.90;;;;;;5119268;27;20066;-81
2022/03/05 12:14:59;;;;;;;25.35;12.73;;;6.50;99.90;;;;;;5113516;27;20039;-82
2022/03/05 12:17:25;;;;;;;25.98;12.50;;;6.30;99.90;;;;;;5097433;27;20547;-82
2022/03/05 12:19:51;;;;;;;24.98;11.88;;;6.30;99.90;;;;;;5110612;27;20058;-83
2022/03/05 12:22:18;;;;;;;23.33;11.48;;;6.40;99.90;;;;;;5101363;27;20855;-83
2022/03/05 12:24:43;;;;;;;24.63;11.65;;;6.50;99.90;;;;;;5102182;27;20034;-82
2022/03/05 12:27:14;;;;;;;21.45;12.63;;;6.60;99.90;;;;;;5104351;27;20031;-82
2022/03/05 12:29:51;;;;;;;21.90;11.63;;;6.70;99.90;;;;;;5117623;27;20050;-83
2022/03/05 12:32:18;;;;;;;25.08;12.45;;;6.70;99.90;;;;;;5100647;27;20067;-87
2022/03/05 12:34:44;;;;;;;24.48;12.73;;;6.70;99.90;;;;;;5093104;27;20039;-82
2022/03/05 12:37:11;;;;;;;24.45;12.15;;;6.80;99.90;;;;;;5111120;27;20046;-81
2022/03/05 12:39:44;;;;;;;22.17;11.60;;;6.80;99.90;;;;;;5096040;27;20031;-83